Terminal Aerodrome Forecast
Issued by NWS

Home | Current Version | Previous Version | Text Only | Print | Product List | Glossary On
Versions: 1 2 3 4 5 6 7 8 9 10 11 12 13 14 15 16 17 18 19 20
000
FTUS46 KSGX 240537
TAFCRQ
TAF
KCRQ 240537Z 2406/2506 VRB05KT P6SM VCSH BKN035 OVC045
     FM241300 VRB05KT P6SM -SHRA SCT010 BKN035
      TEMPO 2413/2417 4SM RA SCT006 BKN025
     FM241700 VRB05KT P6SM VCSH SCT015 BKN035=

USA.gov is the U.S. government's official web portal to all federal, state and local government web resources and services.